Maskinonge, Canada
Current Conditions -  °F | °C
As of 3:58 AM on Sunday 26 Oct 2014 (Local Time) from CYRQ Reporting Station
Haze Haze  
Wind Chill: 46°   Ceiling: 5000
Heat Index: 46°   Visibility: 3mi
Dew Point: 45°   Wind: 2mph
Humidity: 93%   Direction: 220°SW
Pressure: 29.35"   Gusts: NA
Location:  46.22°N, 73.02°W
Report Text: CYRQ 260758Z AUTO 22002KT 3SM BR FEW037 OVC050 08/07 A2935 RMK SLP939
Loading
Personal Weather Stations






























Interactive Weather Map
Tropical Storm Tracking
New forecast layout! Learn more

10-Day Weather Forecast

Advertisements
Track Severe Weather on mobile